Time;durP1;ratioP1;P1;durP2;ratioP2;P2;SDS_P1;SDS_P2;PMS_P1;PMS_P2;Temp;Humidity;BMP_temperature;BMP_pressure;BME280_temperature;BME280_humidity;BME280_pressure;Samples;Min_cycle;Max_cycle;Signal;HPM_P1;HPM_P2
2022/12/07 00:01:20;;;;;;;5.37;4.87;;;;;;;0.41;100.00;96116.91;5034086;28;20488;-75
2022/12/07 00:03:49;;;;;;;5.90;4.70;;;;;;;0.32;100.00;96113.28;5056473;28;21000;-75
2022/12/07 00:06:17;;;;;;;7.13;4.90;;;;;;;0.31;100.00;96111.72;5050895;28;20462;-73
2022/12/07 00:08:45;;;;;;;5.00;4.50;;;;;;;0.19;100.00;96099.03;5047510;28;20930;-72
2022/12/07 00:11:20;;;;;;;6.70;4.53;;;;;;;0.31;100.00;96116.94;5038386;28;20469;-72
2022/12/07 00:13:51;;;;;;;5.07;4.67;;;;;;;0.27;100.00;96108.88;5032096;28;20437;-73
2022/12/07 00:16:19;;;;;;;4.63;4.17;;;;;;;0.28;100.00;96107.84;5014460;28;20442;-75
2022/12/07 00:18:46;;;;;;;5.53;5.03;;;;;;;0.07;100.00;96075.16;5030529;28;20982;-75
2022/12/07 00:21:18;;;;;;;5.93;4.23;;;;;;;0.26;100.00;96098.72;5013984;28;20470;-75
2022/12/07 00:23:46;;;;;;;4.70;4.20;;;;;;;0.29;100.00;96091.19;5015380;28;20872;-75
2022/12/07 00:26:16;;;;;;;6.43;5.13;;;;;;;0.35;100.00;96098.97;5033787;28;20553;-75
2022/12/07 00:28:47;;;;;;;5.00;4.50;;;;;;;0.33;100.00;96098.47;5032972;28;20464;-75
2022/12/07 00:31:16;;;;;;;4.90;4.30;;;;;;;0.31;100.00;96096.13;5030701;28;20548;-75
2022/12/07 00:33:43;;;;;;;7.50;5.57;;;;;;;0.42;100.00;96102.06;5055431;28;20524;-75
2022/12/07 00:36:19;;;;;;;7.80;5.27;;;;;;;0.31;100.00;96095.34;5032045;28;20471;-74
2022/12/07 00:38:52;;;;;;;6.17;5.47;;;;;;;0.21;100.00;96091.75;5040168;28;20463;-75
2022/12/07 00:41:22;;;;;;;4.63;4.23;;;;;;;0.21;100.00;96101.34;5052193;28;20457;-75
2022/12/07 00:43:49;;;;;;;5.90;5.23;;;;;;;0.22;100.00;96082.13;5049722;28;20564;-74
2022/12/07 00:46:17;;;;;;;5.67;5.17;;;;;;;0.31;100.00;96084.94;5016557;28;20468;-75
2022/12/07 00:48:45;;;;;;;6.00;5.40;;;;;;;0.39;100.00;96073.97;5031696;28;20418;-75
2022/12/07 00:51:13;;;;;;;6.80;6.10;;;;;;;0.31;100.00;96059.72;5029757;28;20539;-75
2022/12/07 00:53:41;;;;;;;7.90;7.10;;;;;;;0.35;100.00;96080.75;5013276;28;20438;-75
2022/12/07 00:56:10;;;;;;;7.07;6.37;;;;;;;0.41;100.00;96084.91;5031207;28;20426;-75
2022/12/07 00:58:37;;;;;;;7.83;7.13;;;;;;;0.48;100.00;96090.59;5029618;28;20481;-75
2022/12/07 01:01:06;;;;;;;8.30;7.20;;;;;;;0.44;100.00;96092.94;5029451;28;20462;-75
2022/12/07 01:03:33;;;;;;;11.60;6.37;;;;;;;0.45;100.00;96094.50;5029681;28;20450;-75
2022/12/07 01:06:01;;;;;;;10.07;7.70;;;;;;;0.47;100.00;96092.41;5029461;28;20865;-75
2022/12/07 01:08:28;;;;;;;8.90;8.00;;;;;;;0.51;100.00;96096.03;5013282;28;20496;-75
2022/12/07 01:11:07;;;;;;;10.70;8.17;;;;;;;0.02;100.00;96051.00;5029429;28;20561;-75
2022/12/07 01:13:35;;;;;;;14.17;8.80;;;;;;;0.38;100.00;96090.63;5013037;28;20445;-75
2022/12/07 01:16:05;;;;;;;9.10;8.10;;;;;;;0.51;100.00;96093.44;5030829;28;20432;-75
2022/12/07 01:18:35;;;;;;;9.43;8.30;;;;;;;0.30;100.00;96071.19;5013095;28;20448;-75
2022/12/07 01:21:10;;;;;;;9.10;6.63;;;;;;;0.49;100.00;96105.16;5029423;28;20497;-75
2022/12/07 01:23:37;;;;;;;9.50;7.23;;;;;;;0.30;100.00;96084.16;5030177;28;20469;-75
2022/12/07 01:26:07;;;;;;;8.43;7.40;;;;;;;0.48;100.00;96101.00;5013045;28;21008;-75
2022/12/07 01:28:34;;;;;;;9.60;7.70;;;;;;;0.42;100.00;96096.88;5048606;28;20432;-75
2022/12/07 01:31:18;;;;;;;8.40;7.60;;;;;;;0.36;100.00;96093.50;5050458;28;20452;-72
2022/12/07 01:33:49;;;;;;;10.00;7.60;;;;;;;0.42;100.00;96105.44;5049367;28;20974;-74
2022/12/07 01:36:20;;;;;;;8.47;7.67;;;;;;;0.49;100.00;96105.91;5030923;28;20428;-74
2022/12/07 01:38:48;;;;;;;9.17;8.27;;;;;;;0.52;100.00;96109.81;5029384;28;20445;-73
2022/12/07 01:41:15;;;;;;;10.63;7.80;;;;;;;0.25;100.00;96071.19;5012672;28;20489;-74
2022/12/07 01:44:09;;;;;;;8.67;6.73;;;;;;;0.22;100.00;96102.91;5033996;28;20441;-73
2022/12/07 01:46:36;;;;;;;8.13;7.20;;;;;;;0.07;100.00;96106.34;5029898;28;21028;-73
2022/12/07 01:49:10;;;;;;;7.40;6.70;;;;;;;0.06;100.00;96109.22;5031665;28;20485;-74
2022/12/07 01:51:40;;;;;;;10.07;8.20;;;;;;;-0.22;100.00;96087.19;5032828;28;20557;-73
2022/12/07 01:54:10;;;;;;;6.50;5.27;;;;;;;-0.22;100.00;96097.56;5033254;28;20523;-73
2022/12/07 01:56:40;;;;;;;6.20;5.60;;;;;;;-0.31;100.00;96118.88;5016707;28;20438;-73
2022/12/07 01:59:07;;;;;;;7.50;5.10;;;;;;;-0.55;100.00;96084.09;5032659;28;20497;-74
2022/12/07 02:01:34;;;;;;;4.07;3.73;;;;;;;-0.38;100.00;96117.59;5032578;28;20454;-73
2022/12/07 02:04:01;;;;;;;2.90;2.70;;;;;;;-0.78;100.00;96089.84;5016251;28;20525;-73
2022/12/07 02:06:29;;;;;;;4.10;3.70;;;;;;;-0.77;100.00;96099.19;5034036;28;20464;-73
2022/12/07 02:08:55;;;;;;;3.10;2.90;;;;;;;-0.80;100.00;96097.09;5033048;28;20473;-73
2022/12/07 02:11:22;;;;;;;1.93;1.80;;;;;;;-1.03;100.00;96081.00;5016685;28;21053;-73
2022/12/07 02:13:49;;;;;;;3.30;2.70;;;;;;;-0.68;100.00;96108.00;5016282;28;20822;-73
2022/12/07 02:16:26;;;;;;;6.70;3.63;;;;;;;-0.40;100.00;96114.47;5032831;28;20914;-73
2022/12/07 02:19:27;;;;;;;8.10;3.10;;;;;;;-0.26;100.00;96110.31;5032582;28;20445;-74
2022/12/07 02:22:07;;;;;;;3.47;3.17;;;;;;;-0.15;100.00;96105.88;5032339;28;20462;-73
2022/12/07 02:24:48;;;;;;;3.50;3.00;;;;;;;-0.12;100.00;96106.13;5032640;28;20476;-73
2022/12/07 02:27:14;;;;;;;4.27;3.37;;;;;;;-0.03;100.00;96101.16;5032501;28;20520;-74
2022/12/07 02:29:54;;;;;;;4.97;4.50;;;;;;;-0.25;100.00;96079.94;5032459;28;21000;-73
2022/12/07 02:32:43;;;;;;;3.67;3.37;;;;;;;-0.15;100.00;96091.06;5032432;28;20442;-74
2022/12/07 02:35:19;;;;;;;4.70;3.20;;;;;;;-0.26;100.00;96073.97;5015847;28;20443;-74
2022/12/07 02:38:07;;;;;;;4.27;3.87;;;;;;;-0.19;100.00;96097.03;5033719;28;20430;-74
2022/12/07 02:40:54;;;;;;;4.53;4.13;;;;;;;-0.36;100.00;96055.78;5033585;28;20449;-73
2022/12/07 02:43:33;;;;;;;4.43;3.90;;;;;;;-0.32;100.00;96054.22;5035354;28;20940;-74
2022/12/07 02:46:16;;;;;;;5.43;4.13;;;;;;;-0.22;100.00;96053.41;5018968;28;20435;-74
2022/12/07 02:48:45;;;;;;;4.00;3.70;;;;;;;-0.11;100.00;96079.13;5032217;28;20907;-74
2022/12/07 02:51:11;;;;;;;4.13;3.83;;;;;;;-0.35;100.00;96028.78;5032119;28;20468;-74
2022/12/07 02:53:41;;;;;;;4.60;4.20;;;;;;;0.04;100.00;96077.50;5032118;28;20805;-73
2022/12/07 02:56:17;;;;;;;5.10;4.50;;;;;;;0.05;100.00;96073.88;5033274;28;20423;-74
2022/12/07 02:59:21;;;;;;;7.47;4.57;;;;;;;0.05;100.00;96064.25;5032970;28;20429;-73
2022/12/07 03:01:47;;;;;;;8.50;6.90;;;;;;;0.09;100.00;96061.88;5015360;28;20449;-73
2022/12/07 03:04:43;;;;;;;7.53;6.00;;;;;;;-0.02;100.00;96061.13;5031750;28;20557;-73
2022/12/07 03:07:24;;;;;;;7.90;7.20;;;;;;;-0.13;100.00;96050.03;5031602;28;20473;-73
2022/12/07 03:10:05;;;;;;;7.57;6.77;;;;;;;-0.13;100.00;96037.03;5033061;28;20458;-73
2022/12/07 03:12:42;;;;;;;6.30;5.70;;;;;;;-0.19;100.00;96024.31;5031640;28;20561;-73
2022/12/07 03:15:16;;;;;;;6.77;6.17;;;;;;;-0.04;100.00;96042.44;5031730;28;20422;-73
2022/12/07 03:17:45;;;;;;;7.17;6.50;;;;;;;-0.23;100.00;96024.06;5031706;28;20417;-73
2022/12/07 03:20:15;;;;;;;9.30;8.40;;;;;;;-0.05;100.00;96030.50;5032761;28;20450;-73
2022/12/07 03:22:45;;;;;;;9.97;7.53;;;;;;;-0.16;100.00;96008.97;5031621;28;20534;-73
2022/12/07 03:25:15;;;;;;;7.30;5.67;;;;;;;-0.30;100.00;95990.56;5048588;28;20447;-73
2022/12/07 03:28:08;;;;;;;8.17;6.50;;;;;;;-0.07;100.00;96020.38;5034792;28;20583;-73
2022/12/07 03:30:50;;;;;;;8.60;6.87;;;;;;;-0.12;100.00;96017.03;5051082;28;20445;-73
2022/12/07 03:33:22;;;;;;;8.17;7.47;;;;;;;-0.28;100.00;96000.69;5051209;28;20484;-73
2022/12/07 03:35:58;;;;;;;7.57;6.70;;;;;;;-0.35;100.00;95990.59;5038183;28;20814;-73
2022/12/07 03:38:32;;;;;;;7.90;6.90;;;;;;;-0.57;100.00;95953.00;5030511;28;20520;-73
2022/12/07 03:41:05;;;;;;;7.93;7.13;;;;;;;-0.23;100.00;96011.09;5014642;28;20461;-73
2022/12/07 03:43:32;;;;;;;9.50;8.43;;;;;;;-0.39;100.00;95988.81;5035839;28;20475;-73
2022/12/07 03:46:21;;;;;;;6.83;6.13;;;;;;;-0.19;100.00;96009.50;5017848;28;20931;-73
2022/12/07 03:48:53;;;;;;;9.93;7.80;;;;;;;-0.19;100.00;96014.69;5030937;28;20441;-73
2022/12/07 03:51:26;;;;;;;8.30;7.40;;;;;;;-0.23;100.00;96007.72;5031071;28;20462;-73
2022/12/07 03:54:02;;;;;;;9.10;7.73;;;;;;;-0.42;100.00;95979.69;5032218;28;20445;-73
2022/12/07 03:56:29;;;;;;;7.30;6.60;;;;;;;-0.23;100.00;96005.88;5032115;28;20418;-73
2022/12/07 03:58:56;;;;;;;12.03;9.90;;;;;;;-0.33;100.00;96006.69;5027771;28;20445;-73
2022/12/07 04:01:23;;;;;;;20.33;14.50;;;;;;;-0.29;100.00;96012.13;5050698;28;20465;-73
2022/12/07 04:03:50;;;;;;;19.00;12.90;;;;;;;-0.36;100.00;96002.03;5033981;28;20784;-73
2022/12/07 04:06:17;;;;;;;23.47;16.40;;;;;;;-0.53;100.00;95983.41;5050453;28;20429;-73
2022/12/07 04:08:43;;;;;;;25.67;17.47;;;;;;;-0.52;100.00;96023.13;5050404;28;20540;-73
2022/12/07 04:11:10;;;;;;;13.27;10.80;;;;;;;-0.82;100.00;96022.09;5050018;28;20465;-73
2022/12/07 04:16:25;;;;;;;10.37;8.97;;;;;;;-1.53;100.00;95952.09;5051789;28;20429;-73
2022/12/07 04:18:51;;;;;;;10.20;9.00;;;;;;;-1.24;100.00;95983.47;5033701;28;20433;-73
2022/12/07 04:21:18;;;;;;;9.00;8.10;;;;;;;-1.16;100.00;96002.91;5050149;28;20469;-73
2022/12/07 04:23:45;;;;;;;8.20;7.33;;;;;;;-1.24;100.00;95984.22;5050180;28;20438;-73
2022/12/07 04:26:11;;;;;;;8.70;7.80;;;;;;;-1.01;100.00;96019.25;5051617;28;20439;-73
2022/12/07 04:28:38;;;;;;;12.13;9.27;;;;;;;-1.02;100.00;96006.56;5033621;28;20425;-73
2022/12/07 04:31:04;;;;;;;9.80;7.80;;;;;;;-0.80;100.00;96014.84;5050147;28;20965;-73
2022/12/07 04:33:31;;;;;;;9.10;8.20;;;;;;;-0.96;100.00;95989.94;5050004;28;20441;-73
2022/12/07 04:35:58;;;;;;;9.10;8.03;;;;;;;-0.98;100.00;95999.78;5034337;28;20446;-73
2022/12/07 04:38:24;;;;;;;11.07;9.70;;;;;;;-1.14;100.00;96014.59;5028613;28;20438;-73
2022/12/07 04:40:51;;;;;;;11.33;9.97;;;;;;;-1.20;100.00;96005.25;5029979;28;21088;-73
2022/12/07 04:43:17;;;;;;;10.30;9.20;;;;;;;-1.05;100.00;96020.03;5033003;28;20793;-73
2022/12/07 04:45:48;;;;;;;9.63;8.63;;;;;;;-0.80;100.00;96006.25;5037905;28;20432;-73
2022/12/07 04:48:14;;;;;;;9.90;7.23;;;;;;;-0.74;100.00;96018.97;5013467;28;20459;-73
2022/12/07 04:50:41;;;;;;;9.77;8.27;;;;;;;-0.72;100.00;96019.50;5013517;28;20461;-73
2022/12/07 04:53:11;;;;;;;16.60;9.43;;;;;;;-0.53;100.00;96055.31;5013965;28;20539;-73
2022/12/07 04:55:38;;;;;;;10.33;8.33;;;;;;;-0.74;100.00;96044.16;5031614;28;20818;-73
2022/12/07 04:58:05;;;;;;;9.40;8.40;;;;;;;-0.72;100.00;96032.47;5031647;28;20520;-73
2022/12/07 05:00:31;;;;;;;10.23;8.53;;;;;;;-0.72;100.00;96018.72;5029663;28;20841;-73
2022/12/07 05:02:58;;;;;;;9.50;8.60;;;;;;;-0.82;100.00;95996.16;5031084;28;20425;-73
2022/12/07 05:05:25;;;;;;;9.57;8.57;;;;;;;-0.64;100.00;96006.00;5030005;28;20529;-73
2022/12/07 05:07:51;;;;;;;13.73;10.07;;;;;;;-0.45;100.00;96047.75;5031224;28;20485;-73
2022/12/07 05:10:18;;;;;;;10.60;8.80;;;;;;;-0.34;100.00;96049.28;5029658;28;20458;-73
2022/12/07 05:12:45;;;;;;;10.50;9.50;;;;;;;-0.52;100.00;96015.31;5013376;28;20438;-73
2022/12/07 05:15:13;;;;;;;10.40;9.33;;;;;;;-0.48;100.00;96016.34;5029686;28;20434;-73
2022/12/07 05:17:40;;;;;;;11.00;9.27;;;;;;;-0.63;100.00;96017.16;5029688;28;20453;-73
2022/12/07 05:20:08;;;;;;;15.23;9.67;;;;;;;-0.58;100.00;96048.28;5013203;28;20557;-73
2022/12/07 05:22:35;;;;;;;10.23;8.37;;;;;;;-0.67;100.00;96018.69;5029789;28;20429;-73
2022/12/07 05:25:02;;;;;;;11.93;9.93;;;;;;;-0.49;100.00;96038.16;5033608;28;20434;-73
2022/12/07 05:27:28;;;;;;;11.27;10.07;;;;;;;-0.44;100.00;96028.53;5033507;28;20461;-73
2022/12/07 05:29:55;;;;;;;10.17;9.17;;;;;;;-0.31;100.00;96045.38;5034768;28;20433;-74
2022/12/07 05:32:22;;;;;;;9.67;8.63;;;;;;;-0.30;100.00;96052.13;5034817;28;20804;-74
2022/12/07 05:34:48;;;;;;;12.07;9.00;;;;;;;-0.46;100.00;96009.06;5036079;28;20811;-74
2022/12/07 05:37:15;;;;;;;16.87;11.27;;;;;;;-0.33;100.00;96027.47;5027205;28;20422;-74
2022/12/07 05:39:42;;;;;;;10.97;8.87;;;;;;;-0.36;100.00;96030.59;5033306;28;20937;-74
2022/12/07 05:42:13;;;;;;;9.90;7.73;;;;;;;-0.19;100.00;96051.06;5016883;28;20442;-74
2022/12/07 05:44:41;;;;;;;10.53;8.50;;;;;;;-0.48;100.00;96014.53;5042787;28;20471;-74
2022/12/07 05:47:09;;;;;;;12.00;10.53;;;;;;;-0.14;100.00;96055.47;5016804;28;20468;-74
2022/12/07 05:49:35;;;;;;;10.33;9.33;;;;;;;-0.19;100.00;96056.25;5034427;28;20445;-74
2022/12/07 05:52:03;;;;;;;10.93;8.30;;;;;;;-0.29;100.00;96048.50;5033416;28;20438;-74
2022/12/07 05:54:29;;;;;;;11.87;10.67;;;;;;;-0.22;100.00;96049.00;5033173;28;20529;-74
2022/12/07 05:56:56;;;;;;;12.23;11.00;;;;;;;-0.33;100.00;96032.66;5033179;28;20426;-74
2022/12/07 05:59:23;;;;;;;14.30;10.47;;;;;;;-0.53;100.00;96013.78;5032969;28;20528;-74
2022/12/07 06:01:52;;;;;;;11.20;10.10;;;;;;;-0.46;100.00;96042.81;5032818;28;20484;-74
2022/12/07 06:04:20;;;;;;;14.30;11.03;;;;;;;-0.13;100.00;96031.84;5051472;28;20479;-73
2022/12/07 06:06:46;;;;;;;11.33;9.70;;;;;;;-0.20;100.00;96025.34;5054000;28;20464;-74
2022/12/07 06:09:18;;;;;;;14.20;10.63;;;;;;;-0.12;100.00;96020.41;5030437;28;20827;-74
2022/12/07 06:14:29;;;;;;;11.80;9.73;;;;;;;-0.59;100.00;96005.19;5035099;28;20438;-74
2022/12/07 06:16:56;;;;;;;11.40;9.90;;;;;;;-0.32;100.00;96042.00;5044514;28;20432;-74
2022/12/07 06:19:26;;;;;;;13.87;11.33;;;;;;;-0.21;100.00;96032.38;5053854;28;20421;-74
2022/12/07 06:21:53;;;;;;;23.27;13.37;;;;;;;-0.02;100.00;96038.53;5052342;28;20832;-74
2022/12/07 06:24:20;;;;;;;15.10;10.27;;;;;;;0.01;100.00;96047.66;5053744;28;20430;-74
2022/12/07 06:26:47;;;;;;;13.87;10.67;;;;;;;-0.22;100.00;96033.41;5052343;28;20429;-73
2022/12/07 06:29:14;;;;;;;15.60;11.30;;;;;;;-0.09;100.00;96040.66;5052291;28;20433;-74
2022/12/07 06:31:41;;;;;;;13.63;10.57;;;;;;;-0.18;100.00;96039.63;5014912;28;20558;-73
2022/12/07 06:34:17;;;;;;;16.00;9.90;;;;;;;-0.18;100.00;96038.84;5032042;28;20449;-74
2022/12/07 06:36:45;;;;;;;19.97;14.10;;;;;;;-0.62;100.00;96011.69;5015821;28;20458;-73
2022/12/07 06:39:12;;;;;;;20.10;15.10;;;;;;;-0.41;100.00;96027.22;5034023;28;20956;-74
2022/12/07 06:41:39;;;;;;;18.30;13.17;;;;;;;-0.17;100.00;96048.97;5032132;28;20474;-74
2022/12/07 06:44:06;;;;;;;11.10;9.87;;;;;;;-0.16;100.00;96053.13;5040458;28;20433;-74
2022/12/07 06:46:35;;;;;;;14.27;11.50;;;;;;;-0.55;100.00;95995.06;5032937;28;20815;-74
2022/12/07 06:49:03;;;;;;;16.20;12.70;;;;;;;-0.13;100.00;96051.84;5044668;28;20449;-74
2022/12/07 06:51:30;;;;;;;25.73;12.70;;;;;;;-0.13;100.00;96039.63;5029047;28;20458;-73
2022/12/07 06:53:56;;;;;;;12.53;10.13;;;;;;;-0.32;100.00;96025.66;5033383;28;20440;-73
2022/12/07 06:56:23;;;;;;;14.17;10.63;;;;;;;-0.22;100.00;96035.25;5015485;28;20438;-73
2022/12/07 06:58:50;;;;;;;19.27;15.30;;;;;;;-0.51;100.00;95980.53;5032827;28;20526;-74
2022/12/07 07:01:18;;;;;;;15.63;11.33;;;;;;;-0.18;100.00;96039.63;5033377;28;20457;-74
2022/12/07 07:03:45;;;;;;;11.40;9.50;;;;;;;-0.46;100.00;96002.06;5032106;28;20438;-75
2022/12/07 07:06:13;;;;;;;13.10;10.53;;;;;;;-0.52;100.00;96010.13;5032460;28;20488;-75
2022/12/07 07:08:40;;;;;;;11.50;9.97;;;;;;;-0.31;100.00;96033.16;5015231;28;20549;-75
2022/12/07 07:11:07;;;;;;;14.70;12.37;;;;;;;-0.51;100.00;96004.69;5025227;28;20482;-75
2022/12/07 07:13:35;;;;;;;16.07;14.33;;;;;;;-0.27;100.00;96045.63;5026355;28;20450;-75
2022/12/07 07:16:02;;;;;;;14.60;12.60;;;;;;;-0.45;100.00;96018.41;5031424;28;20433;-75
2022/12/07 07:18:29;;;;;;;14.20;12.23;;;;;;;-0.26;100.00;96050.59;5031632;28;20930;-75
2022/12/07 07:20:56;;;;;;;12.40;10.47;;;;;;;-0.31;100.00;96051.34;5031344;28;20983;-76
2022/12/07 07:23:22;;;;;;;11.30;9.40;;;;;;;-0.52;100.00;96016.09;5031493;28;20449;-74
2022/12/07 07:25:49;;;;;;;14.57;10.67;;;;;;;-0.54;100.00;96025.94;5018045;28;20972;-73
2022/12/07 07:28:19;;;;;;;9.93;8.90;;;;;;;-0.57;100.00;96018.69;5015328;28;20920;-74
2022/12/07 07:30:45;;;;;;;14.03;10.77;;;;;;;-0.50;100.00;96041.78;5014923;28;20454;-75
2022/12/07 07:33:12;;;;;;;13.70;10.03;;;;;;;-0.66;100.00;95999.53;5032803;28;20442;-74
2022/12/07 07:35:39;;;;;;;16.20;10.77;;;;;;;-0.36;100.00;96053.19;5026285;28;20451;-74
2022/12/07 07:38:06;;;;;;;9.20;7.93;;;;;;;-0.39;100.00;96045.94;5027274;28;20426;-75
2022/12/07 07:40:33;;;;;;;13.80;10.93;;;;;;;-0.66;100.00;96007.31;5014848;28;20450;-76
2022/12/07 07:43:00;;;;;;;11.80;9.10;;;;;;;-0.39;100.00;96041.53;5017438;28;20525;-75
2022/12/07 07:45:27;;;;;;;8.57;7.00;;;;;;;-0.36;100.00;96045.41;5024321;28;20438;-76
2022/12/07 07:47:54;;;;;;;14.13;8.30;;;;;;;-0.56;100.00;96017.66;5044118;28;20612;-75
2022/12/07 07:50:21;;;;;;;13.27;8.60;;;;;;;-0.37;100.00;96049.03;5030788;28;20981;-76
2022/12/07 07:52:48;;;;;;;12.63;9.30;;;;;;;-0.33;100.00;96050.84;5032211;28;20438;-76
2022/12/07 07:55:14;;;;;;;17.23;13.30;;;;;;;-0.46;100.00;96029.84;5034876;28;20418;-75
2022/12/07 07:57:43;;;;;;;14.07;11.77;;;;;;;-0.27;100.00;96041.19;5046419;28;20434;-74
2022/12/07 08:00:17;;;;;;;13.93;9.20;;;;;;;-0.46;100.00;96017.63;5016542;28;20963;-74
2022/12/07 08:02:44;;;;;;;13.50;11.67;;;;;;;-0.68;100.00;95981.59;5030983;28;20430;-76
2022/12/07 08:05:11;;;;;;;14.10;10.67;;;;;;;-0.32;100.00;96038.63;5043138;28;20425;-75
2022/12/07 08:07:39;;;;;;;10.97;8.50;;;;;;;-0.46;100.00;96022.81;5034412;28;20476;-75
2022/12/07 08:10:07;;;;;;;15.87;12.00;;;;;;;-0.21;100.00;96047.19;5028121;28;20843;-76
2022/12/07 08:13:10;;;;;;;14.00;10.57;;;;;;;-0.15;100.00;96054.69;5015699;28;20430;-76
2022/12/07 08:15:29;;;;;;;12.63;8.67;;;;;;;-0.17;100.00;96051.56;5030275;28;20470;-75
2022/12/07 08:17:56;;;;;;;11.03;8.90;;;;;;;-0.44;100.00;96012.16;5040327;28;20476;-75
2022/12/07 08:20:22;;;;;;;15.13;9.03;;;;;;;-0.39;100.00;96019.97;5034303;28;20490;-75
2022/12/07 08:22:49;;;;;;;12.60;9.30;;;;;;;-0.37;100.00;96028.25;5030846;28;20446;-75
2022/12/07 08:25:16;;;;;;;13.83;9.80;;;;;;;-0.35;100.00;96021.75;5030593;28;20492;-75
2022/12/07 08:27:43;;;;;;;10.37;5.93;;;;;;;-0.50;100.00;96006.22;5032238;28;20469;-75
2022/12/07 08:30:09;;;;;;;12.60;9.10;;;;;;;-0.27;100.00;96040.44;5031770;28;20493;-75
2022/12/07 08:32:36;;;;;;;12.23;9.80;;;;;;;-0.20;100.00;96048.72;5031928;28;20529;-75
2022/12/07 08:35:03;;;;;;;14.93;9.80;;;;;;;-0.38;100.00;96026.72;5032403;28;20438;-75
2022/12/07 08:37:31;;;;;;;11.53;8.57;;;;;;;-0.22;100.00;96046.41;5033056;28;20426;-75
2022/12/07 08:39:58;;;;;;;9.33;6.80;;;;;;;-0.17;100.00;96056.00;5035918;28;20548;-75
2022/12/07 08:42:29;;;;;;;12.53;8.87;;;;;;;-0.13;100.00;96062.25;5039630;28;20432;-75
2022/12/07 08:44:56;;;;;;;11.00;7.70;;;;;;;-0.15;100.00;96061.69;5039759;28;20437;-75
2022/12/07 08:47:24;;;;;;;12.17;8.80;;;;;;;-0.14;100.00;96064.03;5043031;28;20422;-75
2022/12/07 08:49:53;;;;;;;17.07;10.70;;;;;;;-0.47;100.00;96012.72;5030926;28;20445;-75
2022/12/07 08:52:19;;;;;;;16.20;11.30;;;;;;;-0.32;100.00;96029.03;5030942;28;20964;-75
2022/12/07 08:54:46;;;;;;;13.77;9.67;;;;;;;-0.33;100.00;96031.88;5030030;28;20426;-75
2022/12/07 08:57:13;;;;;;;19.70;12.10;;;;;;;-0.23;100.00;96046.66;5013733;28;20437;-75
2022/12/07 08:59:40;;;;;;;22.13;14.53;;;;;;;-0.19;100.00;96060.69;5035848;28;20438;-75
2022/12/07 09:02:06;;;;;;;16.20;12.77;;;;;;;-0.24;100.00;96056.28;5037240;28;20441;-75
2022/12/07 09:04:33;;;;;;;18.93;12.13;;;;;;;-0.45;100.00;96021.78;5036076;28;20441;-76
2022/12/07 09:07:00;;;;;;;15.00;12.17;;;;;;;-0.32;100.00;96047.19;5036795;28;20891;-76
2022/12/07 09:09:27;;;;;;;8.40;6.97;;;;;;;-0.35;100.00;96044.34;5016713;28;20539;-76
2022/12/07 09:11:54;;;;;;;18.93;11.90;;;;;;;-0.36;100.00;96038.38;5031060;28;20446;-76
2022/12/07 09:14:20;;;;;;;14.20;12.03;;;;;;;-0.14;100.00;96065.84;5029798;28;20969;-76
2022/12/07 09:16:47;;;;;;;15.67;10.13;;;;;;;-0.35;100.00;96042.53;5029529;28;20553;-76
2022/12/07 09:19:14;;;;;;;19.37;12.37;;;;;;;-0.18;100.00;96068.19;5029980;28;20768;-76
2022/12/07 09:21:41;;;;;;;12.83;9.73;;;;;;;-0.31;100.00;96042.78;5029289;28;20484;-75
2022/12/07 09:24:08;;;;;;;14.67;11.10;;;;;;;-0.37;100.00;96036.84;5029664;28;20433;-75
2022/12/07 09:26:35;;;;;;;15.13;11.67;;;;;;;-0.15;100.00;96067.66;5013398;28;20431;-76
2022/12/07 09:29:03;;;;;;;21.60;13.60;;;;;;;-0.41;100.00;96016.84;5022212;28;20459;-76
2022/12/07 09:31:29;;;;;;;15.80;11.40;;;;;;;-0.16;100.00;96066.13;5024960;28;20533;-76
2022/12/07 09:33:58;;;;;;;18.20;11.37;;;;;;;-0.02;100.00;96074.91;5029385;28;20961;-76
2022/12/07 09:36:26;;;;;;;18.87;12.17;;;;;;;-0.19;100.00;96051.06;5032368;28;20444;-76
2022/12/07 09:38:52;;;;;;;19.10;12.53;;;;;;;-0.33;100.00;96022.28;5031054;28;20430;-76
2022/12/07 09:41:20;;;;;;;15.70;10.90;;;;;;;-0.06;100.00;96055.69;5029582;28;20476;-76
2022/12/07 09:43:47;;;;;;;24.87;14.80;;;;;;;0.06;100.00;96065.03;5036863;28;21071;-76
2022/12/07 09:46:18;;;;;;;21.43;14.60;;;;;;;0.14;100.00;96074.88;5033314;28;20533;-76
2022/12/07 09:48:46;;;;;;;19.50;14.03;;;;;;;-0.17;100.00;96030.78;5009822;28;20470;-76
2022/12/07 09:51:20;;;;;;;102.90;59.17;;;;;;;0.01;100.00;96057.25;5029231;28;20497;-74
2022/12/07 09:53:54;;;;;;;55.97;32.93;;;;;;;0.09;100.00;96069.69;5029537;28;20922;-75
2022/12/07 09:56:22;;;;;;;29.40;21.10;;;;;;;0.12;100.00;96061.34;5029511;28;20512;-76
2022/12/07 09:58:50;;;;;;;29.00;22.93;;;;;;;0.11;100.00;96065.00;5029759;28;20790;-75
2022/12/07 10:01:19;;;;;;;18.83;14.40;;;;;;;-0.13;100.00;96031.84;5029514;28;20517;-75
2022/12/07 10:03:58;;;;;;;23.10;15.10;;;;;;;0.13;100.00;96063.69;5013050;28;20442;-75
2022/12/07 10:06:25;;;;;;;23.17;13.10;;;;;;;0.11;100.00;96050.19;5012971;28;20450;-75
2022/12/07 10:08:54;;;;;;;21.77;16.07;;;;;;;0.15;100.00;96040.06;5031132;28;20465;-75
2022/12/07 10:11:21;;;;;;;20.07;16.43;;;;;;;0.07;100.00;96023.19;5016473;28;20466;-75
2022/12/07 10:13:53;;;;;;;22.10;12.70;;;;;;;0.12;100.00;96045.75;5014966;28;20453;-75
2022/12/07 10:16:40;;;;;;;13.47;8.90;;;;;;;0.21;100.00;96044.94;5012918;28;20457;-74
2022/12/07 10:19:31;;;;;;;20.53;12.73;;;;;;;0.21;100.00;96044.94;5032643;28;20448;-75
2022/12/07 10:22:08;;;;;;;21.03;13.30;;;;;;;0.24;100.00;96051.44;5016111;28;20482;-75
2022/12/07 10:24:37;;;;;;;25.60;13.73;;;;;;;0.25;100.00;96051.16;5032476;28;20579;-75
2022/12/07 10:27:03;;;;;;;22.80;13.43;;;;;;;0.09;100.00;96015.88;5033926;28;20556;-75
2022/12/07 10:29:37;;;;;;;25.97;14.13;;;;;;;0.26;100.00;96047.50;5032627;28;20520;-75
2022/12/07 10:32:25;;;;;;;17.80;12.97;;;;;;;0.15;100.00;96019.25;5032580;28;20450;-75
2022/12/07 10:35:18;;;;;;;19.60;12.93;;;;;;;0.13;100.00;96016.13;5032524;28;20449;-76
2022/12/07 10:37:45;;;;;;;18.50;12.33;;;;;;;-0.11;100.00;95979.63;5027246;28;20466;-75
2022/12/07 10:40:29;;;;;;;18.60;12.13;;;;;;;0.28;100.00;96039.47;5033740;28;20797;-75
2022/12/07 10:43:05;;;;;;;24.37;13.23;;;;;;;0.26;100.00;96020.75;5046227;28;20482;-75
2022/12/07 10:45:32;;;;;;;23.60;15.17;;;;;;;0.09;100.00;96002.13;5025796;28;20950;-74
2022/12/07 10:48:16;;;;;;;32.60;25.37;;;;;;;0.26;100.00;96025.94;5033934;28;20424;-75
2022/12/07 10:50:52;;;;;;;49.10;35.93;;;;;;;0.34;100.00;96027.22;5019437;28;20472;-74
2022/12/07 10:53:25;;;;;;;38.37;26.73;;;;;;;0.27;100.00;96030.91;5028110;28;20449;-75
2022/12/07 10:56:13;;;;;;;33.97;25.40;;;;;;;0.37;100.00;96029.28;5038263;28;20419;-75
2022/12/07 10:58:58;;;;;;;18.37;16.33;;;;;;;0.36;100.00;96025.91;5032884;28;20418;-74
2022/12/07 11:01:42;;;;;;;20.10;14.37;;;;;;;0.19;100.00;96002.84;5036453;28;20523;-75
2022/12/07 11:04:15;;;;;;;19.07;12.97;;;;;;;0.37;100.00;96024.06;5031912;28;20449;-74
2022/12/07 11:07:12;;;;;;;14.90;9.77;;;;;;;0.41;100.00;96030.31;5034617;28;20418;-74
2022/12/07 11:09:51;;;;;;;20.37;12.57;;;;;;;0.45;100.00;96026.91;5022762;28;20454;-74
2022/12/07 11:12:53;;;;;;;14.27;11.53;;;;;;;0.44;100.00;96020.16;5033723;28;20422;-74
2022/12/07 11:15:40;;;;;;;17.07;12.77;;;;;;;0.47;100.00;96009.19;5032800;28;20470;-74
2022/12/07 11:18:37;;;;;;;17.30;11.37;;;;;;;0.48;100.00;96017.78;5016580;28;20799;-74
2022/12/07 11:21:22;;;;;;;17.10;11.70;;;;;;;0.56;100.00;96012.00;5027490;28;20468;-75
2022/12/07 11:24:16;;;;;;;18.20;11.50;;;;;;;0.46;100.00;95993.88;5038210;28;20487;-78
2022/12/07 11:27:14;;;;;;;20.83;16.23;;;;;;;0.56;100.00;95994.59;5036985;28;20524;-75
2022/12/07 11:30:16;;;;;;;16.47;11.57;;;;;;;0.54;100.00;95998.50;5031017;28;20863;-78
2022/12/07 11:33:21;;;;;;;20.33;13.67;;;;;;;0.63;100.00;95993.50;5005579;28;21132;-75
2022/12/07 11:36:03;;;;;;;17.13;11.83;;;;;;;0.69;100.00;95997.63;5020965;28;20468;-74
2022/12/07 11:38:45;;;;;;;15.17;10.10;;;;;;;0.61;100.00;95980.75;5030748;28;20426;-75
2022/12/07 11:41:12;;;;;;;13.83;10.53;;;;;;;0.61;100.00;95993.78;5031098;28;20940;-74
2022/12/07 11:44:07;;;;;;;9.67;7.97;;;;;;;0.64;100.00;95990.63;5018874;28;20528;-75